createdAt,value
2022-08-05T00:02:21.935Z,100542.50
2022-08-05T00:04:55.551Z,100578.69
2022-08-05T00:08:00.620Z,100577.56
2022-08-05T00:10:09.929Z,100588.75
2022-08-05T00:12:55.833Z,100591.38
2022-08-05T00:15:55.799Z,100567.28
2022-08-05T00:18:09.621Z,100562.38
2022-08-05T00:20:48.866Z,100561.66
2022-08-05T00:23:15.581Z,100580.00
2022-08-05T00:25:46.082Z,100562.88
2022-08-05T00:28:13.535Z,100565.34
2022-08-05T00:30:41.235Z,100568.69
2022-08-05T00:34:42.490Z,100564.09
2022-08-05T00:36:16.083Z,100559.41
2022-08-05T00:38:44.297Z,100567.28
2022-08-05T00:41:11.684Z,100544.59
2022-08-05T00:43:46.688Z,100543.81
2022-08-05T00:46:14.177Z,100550.66
2022-08-05T00:48:51.306Z,100531.44
2022-08-05T00:51:51.080Z,100560.91
2022-08-05T00:54:05.757Z,100539.41
2022-08-05T00:56:32.359Z,100557.81
2022-08-05T00:59:00.359Z,100506.84
2022-08-05T01:01:48.739Z,100532.72
2022-08-05T01:04:15.769Z,100512.03
2022-08-05T01:06:46.695Z,100515.50
2022-08-05T01:09:15.217Z,100527.28
2022-08-05T01:11:46.201Z,100536.66
2022-08-05T01:14:16.615Z,100552.47
2022-08-05T01:16:53.610Z,100544.41
2022-08-05T01:19:36.534Z,100547.72
2022-08-05T01:22:31.979Z,100546.25
2022-08-05T01:25:40.375Z,100557.63
2022-08-05T01:28:17.805Z,100547.16
2022-08-05T01:30:59.558Z,100539.63
2022-08-05T01:33:35.528Z,100555.09
2022-08-05T01:36:07.184Z,100534.50
2022-08-05T01:38:40.185Z,100539.50
2022-08-05T01:41:07.988Z,100556.94
2022-08-05T01:43:35.832Z,100567.13
2022-08-05T01:46:07.283Z,100578.56
2022-08-05T01:48:44.506Z,100571.31
2022-08-05T01:51:12.148Z,100507.09
2022-08-05T01:53:57.663Z,100585.06
2022-08-05T01:58:13.192Z,100544.09
2022-08-05T01:59:18.387Z,100584.53
2022-08-05T02:01:47.232Z,100536.56
2022-08-05T02:04:16.783Z,100559.94
2022-08-05T02:06:45.133Z,100580.38
2022-08-05T02:09:11.945Z,100601.69
2022-08-05T02:12:03.678Z,100596.00
2022-08-05T02:14:37.208Z,100561.81
2022-08-05T02:17:17.057Z,100551.97
2022-08-05T02:20:06.478Z,100570.88
2022-08-05T02:22:42.456Z,100585.22
2022-08-05T02:25:15.743Z,100559.38
2022-08-05T02:27:58.345Z,100591.97
2022-08-05T02:30:31.414Z,100594.13
2022-08-05T02:33:02.759Z,100573.81
2022-08-05T02:35:33.084Z,100596.72
2022-08-05T02:38:04.543Z,100592.78
2022-08-05T02:40:32.079Z,100597.50
2022-08-05T02:42:59.509Z,100619.22
2022-08-05T02:45:28.426Z,100630.75
2022-08-05T02:48:06.555Z,100632.81
2022-08-05T02:50:37.062Z,100609.88
2022-08-05T02:53:04.670Z,100619.69
2022-08-05T02:55:52.032Z,100643.72
2022-08-05T02:58:22.244Z,100645.50
2022-08-05T03:00:49.656Z,100608.28
2022-08-05T03:03:20.448Z,100658.81
2022-08-05T03:06:53.763Z,100665.94
2022-08-05T03:08:39.090Z,100625.50
2022-08-05T03:11:54.843Z,100660.97
2022-08-05T03:14:13.521Z,100627.81
2022-08-05T03:16:40.709Z,100638.06
2022-08-05T03:19:17.448Z,100611.75
2022-08-05T03:21:54.520Z,100662.00
2022-08-05T03:24:29.379Z,100663.84
2022-08-05T03:26:57.688Z,100682.66
2022-08-05T03:29:24.416Z,100681.44
2022-08-05T03:32:11.435Z,100684.75
2022-08-05T03:34:38.630Z,100681.88
2022-08-05T03:37:06.443Z,100687.13
2022-08-05T03:39:38.141Z,100669.94
2022-08-05T03:42:16.561Z,100688.13
2022-08-05T03:44:43.089Z,100656.94
2022-08-05T03:47:09.626Z,100683.06
2022-08-05T03:49:52.001Z,100709.03
2022-08-05T03:52:48.461Z,100723.53
2022-08-05T03:56:00.919Z,100713.94
2022-08-05T03:58:02.707Z,100682.78
2022-08-05T04:00:32.183Z,100662.03
2022-08-05T04:02:59.809Z,100652.16
2022-08-05T04:05:33.883Z,100616.19
2022-08-05T04:08:29.585Z,100590.38
2022-08-05T04:10:53.564Z,100550.53
2022-08-05T04:13:21.664Z,100536.75
2022-08-05T04:16:03.084Z,100540.84
2022-08-05T04:18:32.234Z,100514.56
2022-08-05T04:21:01.746Z,100504.50
2022-08-05T04:24:00.254Z,100472.75
2022-08-05T04:26:17.657Z,100518.84
2022-08-05T04:28:50.806Z,100545.63
2022-08-05T04:31:18.013Z,100542.34
2022-08-05T04:34:19.378Z,100566.25
2022-08-05T04:36:46.122Z,100590.84
2022-08-05T04:39:17.153Z,100588.91
2022-08-05T04:41:44.844Z,100600.31
2022-08-05T04:44:12.980Z,100573.84
2022-08-05T04:46:39.743Z,100588.88
2022-08-05T04:49:12.391Z,100630.03
2022-08-05T04:51:43.939Z,100630.56
2022-08-05T04:54:10.624Z,100637.50
2022-08-05T04:56:39.173Z,100634.84
2022-08-05T04:59:13.957Z,100637.72
2022-08-05T05:02:08.160Z,100643.19
2022-08-05T05:04:38.437Z,100609.53
2022-08-05T05:07:11.963Z,100653.03
2022-08-05T05:09:42.519Z,100657.50
2022-08-05T05:12:11.532Z,100670.47
2022-08-05T05:14:38.385Z,100680.06
2022-08-05T05:17:22.790Z,100681.16
2022-08-05T05:19:50.404Z,100675.16
2022-08-05T05:22:24.101Z,100679.59
2022-08-05T05:24:57.899Z,100672.88
2022-08-05T05:27:41.236Z,100666.84
2022-08-05T05:30:15.760Z,100683.66
2022-08-05T05:33:00.826Z,100659.78
2022-08-05T05:35:37.883Z,100657.19
2022-08-05T05:38:06.427Z,100655.50
2022-08-05T05:40:36.254Z,100664.94
2022-08-05T05:43:03.168Z,100656.81
2022-08-05T05:45:29.960Z,100622.16
2022-08-05T05:48:05.415Z,100680.31
2022-08-05T05:50:44.008Z,100672.78
2022-08-05T05:53:21.600Z,100663.59
2022-08-05T05:55:52.012Z,100675.28
2022-08-05T05:58:31.881Z,100639.16
2022-08-05T06:01:02.386Z,100669.03
2022-08-05T06:03:53.775Z,100655.16
2022-08-05T06:06:27.918Z,100648.19
2022-08-05T06:08:57.425Z,100630.28
2022-08-05T06:11:24.190Z,100638.22
2022-08-05T06:13:54.249Z,100603.41
2022-08-05T06:16:31.665Z,100634.47
2022-08-05T06:19:01.187Z,100651.38
2022-08-05T06:21:36.992Z,100647.94
2022-08-05T06:24:12.090Z,100639.69
2022-08-05T06:26:51.589Z,100648.84
2022-08-05T06:29:23.847Z,100624.25
2022-08-05T06:32:21.065Z,100652.59
2022-08-05T06:34:53.505Z,100645.75
2022-08-05T06:37:56.526Z,100643.63
2022-08-05T06:40:07.783Z,100645.94
2022-08-05T06:42:34.539Z,100648.88
2022-08-05T06:45:05.517Z,100650.13
2022-08-05T06:48:36.497Z,100652.19
2022-08-05T06:50:22.458Z,100650.13
2022-08-05T06:53:03.591Z,100648.69
2022-08-05T06:55:36.726Z,100655.31
2022-08-05T06:58:20.356Z,100670.06
2022-08-05T07:00:50.739Z,100675.06
2022-08-05T07:03:17.430Z,100670.41
2022-08-05T07:05:46.382Z,100640.31
2022-08-05T07:08:13.449Z,100679.88
2022-08-05T07:10:52.217Z,100693.72
2022-08-05T07:13:57.212Z,100670.78
2022-08-05T07:17:56.590Z,100692.44
2022-08-05T07:22:17.325Z,100711.38
2022-08-05T07:24:52.696Z,100721.88
2022-08-05T07:27:20.261Z,100732.28
2022-08-05T07:30:25.575Z,100737.88
2022-08-05T07:32:38.692Z,100740.63
2022-08-05T07:35:56.037Z,100708.09
2022-08-05T07:37:56.489Z,100721.81
2022-08-05T07:40:31.947Z,100732.63
2022-08-05T07:42:59.793Z,100754.53
2022-08-05T07:45:56.460Z,100746.44
2022-08-05T07:49:02.709Z,100742.66
2022-08-05T07:51:23.014Z,100745.59
2022-08-05T07:53:52.404Z,100725.78
2022-08-05T07:57:00.587Z,100761.16
2022-08-05T07:59:08.532Z,100761.16
2022-08-05T08:01:35.428Z,100770.81
2022-08-05T08:04:08.321Z,100732.09
2022-08-05T08:06:34.866Z,100762.94
2022-08-05T08:09:01.874Z,100770.47
2022-08-05T08:11:47.617Z,100769.59
2022-08-05T08:14:18.262Z,100741.19
2022-08-05T08:16:50.986Z,100777.56
2022-08-05T08:20:10.699Z,100783.72
2022-08-05T08:22:09.082Z,100786.34
2022-08-05T08:24:51.911Z,100791.03
2022-08-05T08:27:18.723Z,100797.13
2022-08-05T08:30:05.305Z,100748.72
2022-08-05T08:32:34.475Z,100778.72
2022-08-05T08:35:07.648Z,100793.03
2022-08-05T08:37:40.309Z,100813.06
2022-08-05T08:40:12.097Z,100807.69
2022-08-05T08:42:50.983Z,100788.72
2022-08-05T08:45:26.540Z,100817.47
2022-08-05T08:48:10.547Z,100784.34
2022-08-05T08:51:22.090Z,100829.56
2022-08-05T08:53:36.054Z,100842.31
2022-08-05T08:56:06.037Z,100830.22
2022-08-05T08:58:43.081Z,100857.13
2022-08-05T09:01:17.200Z,100866.59
2022-08-05T09:03:54.540Z,100824.09
2022-08-05T09:06:24.169Z,100869.41
2022-08-05T09:08:55.491Z,100849.81
2022-08-05T09:11:53.444Z,100871.38
2022-08-05T09:14:54.155Z,100854.50
2022-08-05T09:16:55.487Z,100876.47
2022-08-05T09:19:28.058Z,100865.72
2022-08-05T09:22:23.520Z,100877.22
2022-08-05T09:25:01.119Z,100886.16
2022-08-05T09:28:04.670Z,100858.22
2022-08-05T09:30:23.542Z,100892.94
2022-08-05T09:32:51.403Z,100877.19
2022-08-05T09:35:27.231Z,100862.72
2022-08-05T09:38:16.907Z,100904.00
2022-08-05T09:40:51.949Z,100914.09
2022-08-05T09:43:41.915Z,100892.38
2022-08-05T09:46:28.036Z,100916.88
2022-08-05T09:49:08.105Z,100886.38
2022-08-05T09:51:43.414Z,100913.03
2022-08-05T09:54:11.419Z,100898.78
2022-08-05T09:56:39.005Z,100924.34
2022-08-05T09:59:17.208Z,100929.94
2022-08-05T10:01:46.504Z,100896.25
2022-08-05T10:04:16.222Z,100926.72
2022-08-05T10:06:59.518Z,100928.41
2022-08-05T10:09:29.872Z,100902.19
2022-08-05T10:12:18.825Z,100933.91
2022-08-05T10:15:13.862Z,100934.56
2022-08-05T10:17:54.462Z,100940.72
2022-08-05T10:20:23.800Z,100912.25
2022-08-05T10:22:51.989Z,100911.00
2022-08-05T10:25:19.710Z,100953.41
2022-08-05T10:28:13.896Z,100959.03
2022-08-05T10:31:20.588Z,100962.47
2022-08-05T10:33:25.620Z,100963.72
2022-08-05T10:35:59.239Z,100979.41
2022-08-05T10:38:28.686Z,100971.00
2022-08-05T10:41:45.191Z,100983.19
2022-08-05T10:44:17.661Z,100980.09
2022-08-05T10:46:50.565Z,100987.72
2022-08-05T10:49:18.414Z,100990.38
2022-08-05T10:52:00.244Z,100994.31
2022-08-05T10:54:56.112Z,101004.50
2022-08-05T10:57:29.453Z,101005.16
2022-08-05T11:00:17.901Z,101001.31
2022-08-05T11:03:25.730Z,101005.72
2022-08-05T11:06:14.486Z,101026.28
2022-08-05T11:09:10.297Z,101034.94
2022-08-05T11:11:44.443Z,101009.84
2022-08-05T11:15:01.569Z,101030.81
2022-08-05T11:17:57.210Z,101045.41
2022-08-05T11:20:32.927Z,101046.75
2022-08-05T11:23:05.906Z,101053.22
2022-08-05T11:26:05.176Z,101030.53
2022-08-05T11:28:32.882Z,101060.66
2022-08-05T11:31:06.333Z,101060.31
2022-08-05T11:33:46.193Z,101043.53
2022-08-05T11:36:33.987Z,101065.69
2022-08-05T11:39:09.115Z,101069.59
2022-08-05T11:42:02.031Z,101057.34
2022-08-05T11:44:52.740Z,101082.09
2022-08-05T11:47:15.265Z,101038.88
2022-08-05T11:49:51.231Z,101072.41
2022-08-05T11:52:29.511Z,101081.94
2022-08-05T11:54:58.457Z,101080.19
2022-08-05T11:57:30.651Z,101087.56
2022-08-05T12:00:25.610Z,101080.91
2022-08-05T12:02:56.613Z,101072.19
2022-08-05T12:05:36.065Z,101072.44
2022-08-05T12:08:09.926Z,101061.91
2022-08-05T12:10:45.446Z,101052.66
2022-08-05T12:13:27.747Z,101060.50
2022-08-05T12:16:14.713Z,101047.97
2022-08-05T12:18:49.049Z,101056.19
2022-08-05T12:21:31.815Z,101022.13
2022-08-05T12:24:07.576Z,101048.50
2022-08-05T12:26:50.169Z,101049.31
2022-08-05T12:29:22.853Z,101052.28
2022-08-05T12:32:01.709Z,101047.50
2022-08-05T12:34:32.180Z,101059.00
2022-08-05T12:37:01.430Z,101047.72
2022-08-05T12:39:37.510Z,101068.53
2022-08-05T12:42:14.919Z,101070.31
2022-08-05T12:44:42.997Z,101076.44
2022-08-05T12:47:12.335Z,101068.28
2022-08-05T12:50:03.753Z,101069.78
2022-08-05T12:52:41.874Z,101085.75
2022-08-05T12:55:22.224Z,101086.53
2022-08-05T12:58:38.415Z,101051.47
2022-08-05T13:02:00.105Z,101094.81
2022-08-05T13:03:33.154Z,101078.03
2022-08-05T13:06:01.593Z,101097.69
2022-08-05T13:08:32.201Z,101088.88
2022-08-05T13:11:02.338Z,101099.41
2022-08-05T13:14:07.348Z,101097.72
2022-08-05T13:16:17.331Z,101088.22
2022-08-05T13:18:55.278Z,101086.91
2022-08-05T13:21:27.810Z,101109.63
2022-08-05T13:23:55.549Z,101099.41
2022-08-05T13:26:29.955Z,101084.63
2022-08-05T13:28:57.132Z,101106.84
2022-08-05T13:32:04.847Z,101113.94
2022-08-05T13:34:31.834Z,101117.84
2022-08-05T13:37:00.197Z,101088.31
2022-08-05T13:40:15.012Z,101118.22
2022-08-05T13:42:14.784Z,101113.41
2022-08-05T13:44:46.051Z,101127.22
2022-08-05T13:47:34.864Z,101131.81
2022-08-05T13:50:04.507Z,101128.44
2022-08-05T13:52:35.253Z,101135.16
2022-08-05T13:55:03.003Z,101119.97
2022-08-05T13:57:48.558Z,101115.28
2022-08-05T14:00:27.135Z,101124.06
2022-08-05T14:02:58.490Z,101135.16
2022-08-05T14:05:48.200Z,101129.25
2022-08-05T14:08:21.188Z,101132.50
2022-08-05T14:10:59.817Z,101129.63
2022-08-05T14:13:30.009Z,101132.72
2022-08-05T14:16:07.404Z,101104.25
2022-08-05T14:18:37.938Z,101127.78
2022-08-05T14:22:07.239Z,101115.59
2022-08-05T14:23:51.549Z,101144.34
2022-08-05T14:26:36.892Z,101161.03
2022-08-05T14:29:05.280Z,101155.84
2022-08-05T14:32:02.702Z,101141.78
2022-08-05T14:34:30.436Z,101099.00
2022-08-05T14:37:02.182Z,101161.09
2022-08-05T14:39:28.940Z,101142.91
2022-08-05T14:42:19.640Z,101134.28
2022-08-05T14:44:45.883Z,101167.16
2022-08-05T14:47:12.476Z,101140.16
2022-08-05T14:49:58.877Z,101159.63
2022-08-05T14:52:50.509Z,101157.28
2022-08-05T14:55:15.409Z,101161.94
2022-08-05T14:57:56.115Z,101144.72
2022-08-05T15:00:28.050Z,101157.34
2022-08-05T15:02:56.507Z,101147.47
2022-08-05T15:05:29.861Z,101164.88
2022-08-05T15:08:06.307Z,101163.59
2022-08-05T15:10:39.002Z,101168.25
2022-08-05T15:13:06.222Z,101163.44
2022-08-05T15:15:54.198Z,101164.56
2022-08-05T15:18:23.341Z,101173.28
2022-08-05T15:20:50.006Z,101140.47
2022-08-05T15:23:17.810Z,101159.66
2022-08-05T15:25:52.321Z,101150.31
2022-08-05T15:28:22.257Z,101174.84
2022-08-05T15:30:54.071Z,101176.56
2022-08-05T15:33:56.774Z,101175.03
2022-08-05T15:36:16.824Z,101173.88
2022-08-05T15:38:50.599Z,101178.75
2022-08-05T15:41:57.398Z,101174.25
2022-08-05T15:44:23.631Z,101161.56
2022-08-05T15:46:50.684Z,101179.38
2022-08-05T15:49:27.320Z,101164.00
2022-08-05T15:52:13.108Z,101130.94
2022-08-05T15:54:43.048Z,101153.28
2022-08-05T15:57:09.831Z,101134.84
2022-08-05T15:59:38.079Z,101171.84
2022-08-05T16:02:09.302Z,101152.44
2022-08-05T16:04:41.005Z,101171.16
2022-08-05T16:07:10.709Z,101158.09
2022-08-05T16:09:37.699Z,101168.84
2022-08-05T16:12:08.857Z,101175.31
2022-08-05T16:14:35.381Z,101167.94
2022-08-05T16:17:02.041Z,101171.25
2022-08-05T16:20:03.610Z,101130.66
2022-08-05T16:22:16.243Z,101174.66
2022-08-05T16:24:51.353Z,101156.13
2022-08-05T16:27:18.831Z,101145.84
2022-08-05T16:29:51.116Z,101153.56
2022-08-05T16:32:21.732Z,101184.53
2022-08-05T16:34:55.129Z,101154.44
2022-08-05T16:38:02.871Z,101180.00
2022-08-05T16:40:13.423Z,101196.09
2022-08-05T16:42:51.917Z,101150.03
2022-08-05T16:46:05.232Z,101202.81
2022-08-05T16:48:05.154Z,101204.63
2022-08-05T16:50:31.714Z,101179.25
2022-08-05T16:53:12.065Z,101219.38
2022-08-05T16:55:47.518Z,101222.09
2022-08-05T16:58:14.515Z,101222.44
2022-08-05T17:00:41.067Z,101226.28
2022-08-05T17:03:09.208Z,101216.28
2022-08-05T17:05:51.845Z,101213.69
2022-08-05T17:08:35.920Z,101201.25
2022-08-05T17:11:08.834Z,101209.88
2022-08-05T17:13:42.142Z,101240.97
2022-08-05T17:16:28.143Z,101243.19
2022-08-05T17:18:55.542Z,101248.25
2022-08-05T17:21:23.602Z,101243.47
2022-08-05T17:24:04.569Z,101217.72
2022-08-05T17:26:38.439Z,101216.97
2022-08-05T17:29:09.822Z,101265.16
2022-08-05T17:31:41.581Z,101267.09
2022-08-05T17:34:29.812Z,101269.97
2022-08-05T17:36:59.479Z,101271.56
2022-08-05T17:39:34.039Z,101271.34
2022-08-05T17:42:17.325Z,101260.22
2022-08-05T17:44:50.237Z,101275.41
2022-08-05T17:47:22.412Z,101279.50
2022-08-05T17:50:03.523Z,101282.56
2022-08-05T17:52:32.171Z,101287.78
2022-08-05T17:54:59.070Z,101290.16
2022-08-05T17:57:25.629Z,101274.88
2022-08-05T18:00:04.782Z,101263.91
2022-08-05T18:02:35.101Z,101281.31
2022-08-05T18:05:06.282Z,101295.53
2022-08-05T18:07:42.170Z,101272.69
2022-08-05T18:10:11.466Z,101310.47
2022-08-05T18:12:41.180Z,101317.00
2022-08-05T18:15:08.781Z,101280.25
2022-08-05T18:18:00.596Z,101318.72
2022-08-05T18:20:29.669Z,101318.34
2022-08-05T18:23:00.709Z,101315.75
2022-08-05T18:25:35.816Z,101305.56
2022-08-05T18:28:05.096Z,101355.44
2022-08-05T18:30:33.178Z,101338.97
2022-08-05T18:33:00.865Z,101353.81
2022-08-05T18:36:00.043Z,101348.94
2022-08-05T18:38:18.925Z,101354.63
2022-08-05T18:41:58.475Z,101343.25
2022-08-05T18:43:38.061Z,101343.13
2022-08-05T18:46:09.869Z,101365.91
2022-08-05T18:48:41.414Z,101369.66
2022-08-05T18:52:05.610Z,101366.53
2022-08-05T18:54:14.403Z,101366.34
2022-08-05T18:56:50.777Z,101343.38
2022-08-05T18:59:43.267Z,101375.97
2022-08-05T19:02:11.500Z,101379.34
2022-08-05T19:05:01.108Z,101386.78
2022-08-05T19:07:30.224Z,101391.88
2022-08-05T19:10:12.329Z,101395.50
2022-08-05T19:12:38.950Z,101400.19
2022-08-05T19:15:06.320Z,101398.38
2022-08-05T19:18:08.198Z,101402.69
2022-08-05T19:20:36.714Z,101408.94
2022-08-05T19:23:03.399Z,101403.97
2022-08-05T19:25:41.893Z,101405.41
2022-08-05T19:28:10.291Z,101408.28
2022-08-05T19:30:36.991Z,101416.72
2022-08-05T19:33:04.625Z,101395.34
2022-08-05T19:35:56.444Z,101382.91
2022-08-05T19:38:24.447Z,101430.34
2022-08-05T19:40:53.607Z,101408.47
2022-08-05T19:44:04.956Z,101443.41
2022-08-05T19:46:06.890Z,101443.88
2022-08-05T19:48:53.596Z,101417.13
2022-08-05T19:52:04.277Z,101434.72
2022-08-05T19:54:25.428Z,101432.34
2022-08-05T19:56:55.541Z,101415.97
2022-08-05T20:00:02.128Z,101474.94
2022-08-05T20:02:08.691Z,101473.41
2022-08-05T20:04:38.052Z,101475.88
2022-08-05T20:07:13.090Z,101485.75
2022-08-05T20:09:54.935Z,101461.97
2022-08-05T20:12:24.942Z,101469.41
2022-08-05T20:14:53.009Z,101469.41
2022-08-05T20:17:23.560Z,101482.03
2022-08-05T20:19:52.741Z,101483.59
2022-08-05T20:22:26.989Z,101503.13
2022-08-05T20:24:55.306Z,101511.69
2022-08-05T20:27:26.951Z,101506.84
2022-08-05T20:29:58.427Z,101527.25
2022-08-05T20:32:26.948Z,101497.56
2022-08-05T20:34:54.111Z,101512.59
2022-08-05T20:38:06.114Z,101526.25
2022-08-05T20:40:08.364Z,101483.56
2022-08-05T20:42:35.503Z,101532.50
2022-08-05T20:45:02.727Z,101503.50
2022-08-05T20:47:31.647Z,101471.94
2022-08-05T20:49:59.681Z,101537.41
2022-08-05T20:52:28.927Z,101550.03
2022-08-05T20:55:55.623Z,101552.94
2022-08-05T20:57:44.343Z,101554.63
2022-08-05T21:00:20.863Z,101563.34
2022-08-05T21:03:06.948Z,101532.47
2022-08-05T21:05:41.949Z,101564.38
2022-08-05T21:08:21.064Z,101556.75
2022-08-05T21:10:53.582Z,101555.34
2022-08-05T21:13:36.796Z,101556.88
2022-08-05T21:16:07.128Z,101540.81
2022-08-05T21:18:34.207Z,101556.38
2022-08-05T21:21:02.491Z,101570.00
2022-08-05T21:23:29.065Z,101547.19
2022-08-05T21:26:04.134Z,101566.97
2022-08-05T21:28:34.831Z,101546.81
2022-08-05T21:31:03.818Z,101547.13
2022-08-05T21:33:39.763Z,101544.81
2022-08-05T21:36:06.853Z,101575.38
2022-08-05T21:38:38.715Z,101574.91
2022-08-05T21:41:07.746Z,101579.97
2022-08-05T21:43:41.881Z,101571.69
2022-08-05T21:46:08.642Z,101509.06
2022-08-05T21:48:38.715Z,101554.28
2022-08-05T21:52:16.225Z,101591.59
2022-08-05T21:53:59.472Z,101546.34
2022-08-05T21:56:30.752Z,101595.63
2022-08-05T21:58:58.052Z,101561.38
2022-08-05T22:01:25.749Z,101564.16
2022-08-05T22:03:53.598Z,101596.00
2022-08-05T22:06:22.783Z,101602.13
2022-08-05T22:08:52.089Z,101606.78
2022-08-05T22:11:34.932Z,101580.81
2022-08-05T22:14:19.921Z,101560.38
2022-08-05T22:16:51.926Z,101596.13
2022-08-05T22:20:00.302Z,101588.28
2022-08-05T22:22:07.311Z,101600.19
2022-08-05T22:24:55.744Z,101622.66
2022-08-05T22:28:08.326Z,101620.66
2022-08-05T22:30:34.919Z,101628.09
2022-08-05T22:33:02.027Z,101592.97
2022-08-05T22:35:47.851Z,101615.41
2022-08-05T22:38:15.274Z,101614.00
2022-08-05T22:40:49.782Z,101632.44
2022-08-05T22:43:37.155Z,101635.22
2022-08-05T22:46:13.206Z,101608.47
2022-08-05T22:48:47.547Z,101618.78
2022-08-05T22:51:16.099Z,101598.63
2022-08-05T22:53:50.972Z,101609.75
2022-08-05T22:56:30.103Z,101629.00
2022-08-05T22:58:59.878Z,101640.91
2022-08-05T23:02:04.578Z,101588.78
2022-08-05T23:04:16.596Z,101609.53
2022-08-05T23:06:43.144Z,101606.16
2022-08-05T23:09:14.619Z,101628.84
2022-08-05T23:11:54.785Z,101633.47
2022-08-05T23:14:22.683Z,101629.03
2022-08-05T23:17:16.839Z,101675.91
2022-08-05T23:19:58.466Z,101634.88
2022-08-05T23:22:27.374Z,101675.03
2022-08-05T23:24:54.893Z,101635.91
2022-08-05T23:27:22.756Z,101678.97
2022-08-05T23:29:50.755Z,101674.69
2022-08-05T23:32:17.460Z,101679.28
2022-08-05T23:34:49.797Z,101682.75
2022-08-05T23:37:18.016Z,101680.81
2022-08-05T23:39:54.271Z,101688.66
2022-08-05T23:42:23.493Z,101694.09
2022-08-05T23:44:56.321Z,101698.66
2022-08-05T23:47:24.997Z,101660.50
2022-08-05T23:49:52.110Z,101682.09
2022-08-05T23:52:32.600Z,101665.31
2022-08-05T23:55:09.055Z,101660.44
2022-08-05T23:57:36.357Z,101711.03
